createdAt,value
2024-03-08T00:01:33.986Z,12.07
2024-03-08T00:06:56.501Z,12.73
2024-03-08T00:12:19.196Z,12.43
2024-03-08T00:17:43.376Z,13.00
2024-03-08T00:23:06.106Z,12.27
2024-03-08T00:28:28.624Z,12.50
2024-03-08T00:33:53.709Z,13.37
2024-03-08T00:39:16.253Z,12.20
2024-03-08T00:44:38.893Z,12.43
2024-03-08T00:50:04.974Z,12.50
2024-03-08T00:55:27.598Z,12.93
2024-03-08T01:00:50.836Z,12.30
2024-03-08T01:06:14.886Z,12.47
2024-03-08T01:11:37.472Z,13.07
2024-03-08T01:17:00.583Z,13.77
2024-03-08T01:22:24.720Z,13.50
2024-03-08T01:27:47.136Z,13.33
2024-03-08T01:33:09.887Z,13.57
2024-03-08T01:38:34.917Z,13.70
2024-03-08T01:43:57.406Z,14.77
2024-03-08T01:49:21.874Z,13.80
2024-03-08T01:54:46.639Z,14.07
2024-03-08T02:00:11.960Z,14.43
2024-03-08T02:05:34.896Z,14.67
2024-03-08T02:10:58.694Z,13.97
2024-03-08T02:16:22.521Z,14.17
2024-03-08T02:21:48.661Z,14.57
2024-03-08T02:27:13.008Z,14.77
2024-03-08T02:32:35.669Z,14.43
2024-03-08T02:37:59.490Z,14.07
2024-03-08T02:43:23.112Z,14.30
2024-03-08T02:48:45.652Z,14.77
2024-03-08T02:54:11.346Z,14.33
2024-03-08T02:59:34.461Z,13.73
2024-03-08T03:04:57.296Z,14.40
2024-03-08T03:10:22.809Z,14.00
2024-03-08T03:15:45.241Z,13.07
2024-03-08T03:21:08.814Z,14.50
2024-03-08T03:26:33.086Z,13.90
2024-03-08T03:31:55.589Z,14.03
2024-03-08T03:37:19.366Z,15.07
2024-03-08T03:42:43.140Z,13.77
2024-03-08T03:48:06.264Z,14.40
2024-03-08T03:53:28.915Z,14.03
2024-03-08T03:58:52.763Z,13.63
2024-03-08T04:04:15.193Z,14.07
2024-03-08T04:09:37.677Z,14.13
2024-03-08T04:15:01.642Z,14.43
2024-03-08T04:20:24.205Z,13.43
2024-03-08T04:25:46.643Z,14.27
2024-03-08T04:31:10.439Z,14.30
2024-03-08T04:36:33.590Z,14.80
2024-03-08T04:41:57.538Z,14.07
2024-03-08T04:47:21.406Z,14.33
2024-03-08T04:52:43.828Z,14.70
2024-03-08T04:58:06.810Z,14.87
2024-03-08T05:03:31.379Z,15.37
2024-03-08T05:08:53.846Z,16.07
2024-03-08T05:14:17.859Z,14.97
2024-03-08T05:19:41.847Z,15.17
2024-03-08T05:25:04.317Z,15.03
2024-03-08T05:30:26.757Z,14.57
2024-03-08T05:35:50.588Z,14.47
2024-03-08T05:41:13.820Z,15.27
2024-03-08T05:46:36.710Z,14.70
2024-03-08T05:52:01.186Z,15.03
2024-03-08T05:57:24.261Z,15.33
2024-03-08T06:02:46.738Z,16.00
2024-03-08T06:08:10.565Z,15.97
2024-03-08T06:13:33.308Z,14.67
2024-03-08T06:18:56.481Z,15.20
2024-03-08T06:24:20.702Z,15.47
2024-03-08T06:29:43.162Z,15.10
2024-03-08T06:35:07.271Z,15.93
2024-03-08T06:40:31.107Z,14.63
2024-03-08T06:45:53.761Z,16.67
2024-03-08T06:51:16.643Z,15.20
2024-03-08T06:56:40.578Z,15.03
2024-03-08T07:02:03.014Z,15.23
2024-03-08T07:07:25.499Z,15.17
2024-03-08T07:12:49.308Z,14.87
2024-03-08T07:18:15.571Z,14.83
2024-03-08T07:24:04.680Z,14.13
2024-03-08T07:29:28.978Z,13.60
2024-03-08T07:34:51.792Z,14.10
2024-03-08T07:40:14.812Z,14.30
2024-03-08T07:45:38.926Z,13.07
2024-03-08T07:51:01.399Z,13.70
2024-03-08T07:56:23.819Z,13.43
2024-03-08T08:01:48.284Z,12.30
2024-03-08T08:07:10.780Z,12.97
2024-03-08T08:12:35.693Z,12.17
2024-03-08T08:17:59.499Z,12.83
2024-03-08T08:23:21.990Z,13.07
2024-03-08T08:28:44.490Z,12.77
2024-03-08T08:34:08.407Z,11.63
2024-03-08T08:39:30.971Z,12.07
2024-03-08T08:44:54.919Z,12.97
2024-03-08T08:50:24.549Z,12.87
2024-03-08T08:55:47.801Z,12.43
2024-03-08T09:01:11.121Z,11.77
2024-03-08T09:06:35.049Z,11.47
2024-03-08T09:11:57.647Z,12.83
2024-03-08T09:17:21.920Z,11.13
2024-03-08T09:22:47.201Z,11.43
2024-03-08T09:28:10.187Z,11.23
2024-03-08T09:33:34.549Z,11.73
2024-03-08T09:39:00.061Z,10.77
2024-03-08T09:44:23.442Z,10.60
2024-03-08T09:49:47.424Z,9.57
2024-03-08T09:55:12.488Z,10.60
2024-03-08T10:00:35.041Z,11.20
2024-03-08T10:06:01.466Z,9.37
2024-03-08T10:11:26.500Z,9.70
2024-03-08T10:16:49.040Z,9.73
2024-03-08T10:22:16.297Z,9.97
2024-03-08T10:27:40.660Z,9.40
2024-03-08T10:33:06.227Z,8.90
2024-03-08T10:38:30.330Z,8.30
2024-03-08T10:44:09.423Z,8.23
2024-03-08T10:49:35.656Z,7.87
2024-03-08T10:54:58.362Z,8.20
2024-03-08T11:00:27.613Z,7.13
2024-03-08T11:05:50.036Z,7.33
2024-03-08T11:11:31.168Z,7.13
2024-03-08T11:16:57.241Z,6.83
2024-03-08T11:22:28.949Z,7.43
2024-03-08T11:27:54.879Z,6.77
2024-03-08T11:33:19.785Z,7.20
2024-03-08T11:38:42.402Z,7.37
2024-03-08T11:44:07.856Z,7.17
2024-03-08T11:49:33.994Z,7.47
2024-03-08T11:54:59.002Z,6.57
2024-03-08T12:00:24.870Z,7.40
2024-03-08T12:05:49.214Z,6.43
2024-03-08T12:11:11.931Z,6.73
2024-03-08T12:16:34.757Z,6.57
2024-03-08T12:21:58.595Z,7.57
2024-03-08T12:27:21.242Z,7.17
2024-03-08T12:32:48.648Z,7.13
2024-03-08T12:38:12.845Z,6.07
2024-03-08T12:43:35.550Z,6.60
2024-03-08T12:48:58.163Z,6.40
2024-03-08T12:54:24.574Z,7.27
2024-03-08T12:59:47.157Z,6.37
2024-03-08T13:05:10.878Z,6.23
2024-03-08T13:10:34.789Z,7.10
2024-03-08T13:15:57.680Z,6.60
2024-03-08T13:21:24.904Z,7.47
2024-03-08T13:26:49.147Z,7.03
2024-03-08T13:32:12.996Z,7.97
2024-03-08T13:37:36.393Z,7.80
2024-03-08T13:43:02.139Z,6.50
2024-03-08T13:48:24.837Z,8.10
2024-03-08T13:53:47.802Z,7.77
2024-03-08T13:59:11.726Z,8.30
2024-03-08T14:04:34.346Z,7.70
2024-03-08T14:09:56.839Z,8.10
2024-03-08T14:15:21.654Z,7.87
2024-03-08T14:20:45.387Z,7.47
2024-03-08T14:26:09.129Z,8.00
2024-03-08T14:31:33.368Z,8.60
2024-03-08T14:36:55.789Z,8.67
2024-03-08T14:42:18.225Z,8.77
2024-03-08T14:47:42.144Z,8.53
2024-03-08T14:53:07.530Z,8.40
2024-03-08T14:58:30.175Z,9.23
2024-03-08T15:03:53.971Z,8.73
2024-03-08T15:09:19.344Z,9.20
2024-03-08T15:14:44.410Z,9.90
2024-03-08T15:20:16.128Z,10.27
2024-03-08T15:25:40.035Z,8.87
2024-03-08T15:31:06.539Z,9.03
2024-03-08T15:36:32.147Z,8.57
2024-03-08T15:41:56.311Z,9.27
2024-03-08T15:47:19.909Z,8.87
2024-03-08T15:52:45.685Z,9.73
2024-03-08T15:58:10.673Z,8.90
2024-03-08T16:03:34.728Z,8.80
2024-03-08T16:09:00.441Z,8.70
2024-03-08T16:14:23.019Z,9.07
2024-03-08T16:19:46.003Z,9.23
2024-03-08T16:25:13.360Z,8.03
2024-03-08T16:30:35.805Z,8.20
2024-03-08T16:35:58.231Z,9.00
2024-03-08T16:41:22.505Z,8.10
2024-03-08T16:46:45.193Z,8.00
2024-03-08T16:52:07.875Z,8.40
2024-03-08T16:57:32.803Z,7.87
2024-03-08T17:02:55.621Z,8.43
2024-03-08T17:08:18.944Z,7.97
2024-03-08T17:13:44.062Z,7.57
2024-03-08T17:19:07.379Z,8.03
2024-03-08T17:24:30.641Z,7.47
2024-03-08T17:29:55.848Z,7.73
2024-03-08T17:35:19.867Z,8.47
2024-03-08T17:40:44.747Z,8.03
2024-03-08T17:46:08.899Z,8.67
2024-03-08T17:51:31.437Z,8.67
2024-03-08T17:56:56.169Z,8.97
2024-03-08T18:02:20.693Z,8.37
2024-03-08T18:07:43.389Z,8.73
2024-03-08T18:13:12.834Z,8.27
2024-03-08T18:18:37.959Z,8.10
2024-03-08T18:24:01.986Z,8.37
2024-03-08T18:29:24.417Z,8.07
2024-03-08T18:34:48.270Z,8.57
2024-03-08T18:40:13.130Z,8.10
2024-03-08T18:45:36.309Z,8.43
2024-03-08T18:51:01.980Z,7.73
2024-03-08T18:56:24.433Z,9.07
2024-03-08T19:01:48.974Z,9.87
2024-03-08T19:07:12.980Z,9.40
2024-03-08T19:12:35.442Z,8.80
2024-03-08T19:17:58.163Z,9.90
2024-03-08T19:23:22.049Z,9.97
2024-03-08T19:28:45.541Z,10.03
2024-03-08T19:34:09.253Z,10.60
2024-03-08T19:39:33.427Z,10.70
2024-03-08T19:44:55.947Z,10.03
2024-03-08T19:50:18.802Z,10.43
2024-03-08T19:55:43.695Z,10.03
2024-03-08T20:01:06.323Z,11.30
2024-03-08T20:06:28.885Z,10.47
2024-03-08T20:11:55.464Z,11.03
2024-03-08T20:17:19.067Z,10.83
2024-03-08T20:22:42.784Z,10.90
2024-03-08T20:28:07.493Z,10.73
2024-03-08T20:33:32.986Z,10.60
2024-03-08T20:38:55.635Z,10.67
2024-03-08T20:44:19.621Z,11.00
2024-03-08T20:49:42.088Z,10.83
2024-03-08T20:55:09.319Z,10.40
2024-03-08T21:00:49.316Z,11.93
2024-03-08T21:06:11.777Z,10.20
2024-03-08T21:11:34.436Z,10.83
2024-03-08T21:16:59.067Z,10.97
2024-03-08T21:22:23.110Z,11.03
2024-03-08T21:27:45.573Z,11.50
2024-03-08T21:33:12.359Z,13.23
2024-03-08T21:38:35.390Z,12.13
2024-03-08T21:43:57.879Z,10.90
2024-03-08T21:49:21.784Z,11.87
2024-03-08T21:54:44.529Z,11.27
2024-03-08T22:00:12.214Z,11.40
2024-03-08T22:05:36.852Z,10.17
2024-03-08T22:11:00.589Z,11.33
2024-03-08T22:16:24.009Z,11.07
2024-03-08T22:21:47.852Z,10.40
2024-03-08T22:27:10.555Z,10.07
2024-03-08T22:32:33.005Z,9.80
2024-03-08T22:37:57.140Z,10.90
2024-03-08T22:43:19.830Z,10.17
2024-03-08T22:48:43.097Z,10.93
2024-03-08T22:54:07.173Z,9.30
2024-03-08T22:59:29.620Z,10.03
2024-03-08T23:04:53.022Z,10.17
2024-03-08T23:10:17.172Z,9.60
2024-03-08T23:15:42.062Z,9.40
2024-03-08T23:21:04.961Z,9.53
2024-03-08T23:26:29.065Z,9.27
2024-03-08T23:31:51.653Z,9.37
2024-03-08T23:37:14.149Z,8.77
2024-03-08T23:42:38.181Z,9.57
2024-03-08T23:48:01.572Z,8.83
2024-03-08T23:53:24.102Z,9.20
2024-03-08T23:58:50.517Z,9.43
